sensor_id;sensor_type;location;lat;lon;timestamp;pressure;altitude;pressure_sealevel;temperature
20736;BMP180;10528;52.124;5.196;2023-04-24T00:01:38;99718.00;;;17.00
20736;BMP180;10528;52.124;5.196;2023-04-24T00:04:06;99732.00;;;17.10
20736;BMP180;10528;52.124;5.196;2023-04-24T00:06:34;99729.00;;;17.10
20736;BMP180;10528;52.124;5.196;2023-04-24T00:09:01;99734.00;;;17.10
20736;BMP180;10528;52.124;5.196;2023-04-24T00:11:29;99732.00;;;17.10
20736;BMP180;10528;52.124;5.196;2023-04-24T00:13:56;99729.00;;;17.10
20736;BMP180;10528;52.124;5.196;2023-04-24T00:16:23;99740.00;;;17.10
20736;BMP180;10528;52.124;5.196;2023-04-24T00:18:50;99744.00;;;17.00
20736;BMP180;10528;52.124;5.196;2023-04-24T00:21:19;99755.00;;;17.10
20736;BMP180;10528;52.124;5.196;2023-04-24T00:23:47;99749.00;;;17.10
20736;BMP180;10528;52.124;5.196;2023-04-24T00:26:14;99754.00;;;17.10
20736;BMP180;10528;52.124;5.196;2023-04-24T00:28:41;99758.00;;;17.00
20736;BMP180;10528;52.124;5.196;2023-04-24T00:31:08;99763.00;;;16.80
20736;BMP180;10528;52.124;5.196;2023-04-24T00:33:35;99758.00;;;16.90
20736;BMP180;10528;52.124;5.196;2023-04-24T00:36:02;99766.00;;;17.00
20736;BMP180;10528;52.124;5.196;2023-04-24T00:38:29;99770.00;;;16.80
20736;BMP180;10528;52.124;5.196;2023-04-24T00:40:56;99766.00;;;16.80
20736;BMP180;10528;52.124;5.196;2023-04-24T00:43:23;99773.00;;;16.90
20736;BMP180;10528;52.124;5.196;2023-04-24T00:45:50;99765.00;;;16.90
20736;BMP180;10528;52.124;5.196;2023-04-24T00:48:18;99772.00;;;16.90
20736;BMP180;10528;52.124;5.196;2023-04-24T00:50:46;99774.00;;;16.90
20736;BMP180;10528;52.124;5.196;2023-04-24T00:53:13;99769.00;;;16.90
20736;BMP180;10528;52.124;5.196;2023-04-24T00:55:40;99766.00;;;16.90
20736;BMP180;10528;52.124;5.196;2023-04-24T00:58:07;99773.00;;;16.90
20736;BMP180;10528;52.124;5.196;2023-04-24T01:00:35;99774.00;;;16.90
20736;BMP180;10528;52.124;5.196;2023-04-24T01:03:05;99777.00;;;16.90
20736;BMP180;10528;52.124;5.196;2023-04-24T01:05:33;99782.00;;;16.90
20736;BMP180;10528;52.124;5.196;2023-04-24T01:08:02;99779.00;;;16.90
20736;BMP180;10528;52.124;5.196;2023-04-24T01:10:31;99767.00;;;16.90
20736;BMP180;10528;52.124;5.196;2023-04-24T01:12:59;99781.00;;;16.90
20736;BMP180;10528;52.124;5.196;2023-04-24T01:15:26;99778.00;;;16.90
20736;BMP180;10528;52.124;5.196;2023-04-24T01:17:53;99784.00;;;16.90
20736;BMP180;10528;52.124;5.196;2023-04-24T01:20:20;99781.00;;;17.00
20736;BMP180;10528;52.124;5.196;2023-04-24T01:22:48;99787.00;;;17.00
20736;BMP180;10528;52.124;5.196;2023-04-24T01:25:15;99782.00;;;17.00
20736;BMP180;10528;52.124;5.196;2023-04-24T01:27:42;99789.00;;;17.00
20736;BMP180;10528;52.124;5.196;2023-04-24T01:30:12;99791.00;;;16.90
20736;BMP180;10528;52.124;5.196;2023-04-24T01:32:40;99783.00;;;16.90
20736;BMP180;10528;52.124;5.196;2023-04-24T01:35:07;99781.00;;;17.00
20736;BMP180;10528;52.124;5.196;2023-04-24T01:37:34;99789.00;;;16.90
20736;BMP180;10528;52.124;5.196;2023-04-24T01:40:06;99792.00;;;17.00
20736;BMP180;10528;52.124;5.196;2023-04-24T01:42:34;99792.00;;;17.00
20736;BMP180;10528;52.124;5.196;2023-04-24T01:45:04;99795.00;;;17.00
20736;BMP180;10528;52.124;5.196;2023-04-24T01:47:33;99788.00;;;17.00
20736;BMP180;10528;52.124;5.196;2023-04-24T01:50:00;99789.00;;;17.00
20736;BMP180;10528;52.124;5.196;2023-04-24T01:52:26;99794.00;;;17.00
20736;BMP180;10528;52.124;5.196;2023-04-24T01:54:55;99785.00;;;17.00
20736;BMP180;10528;52.124;5.196;2023-04-24T01:57:22;99799.00;;;17.00
20736;BMP180;10528;52.124;5.196;2023-04-24T01:59:50;99788.00;;;17.00
20736;BMP180;10528;52.124;5.196;2023-04-24T02:02:17;99790.00;;;17.00
20736;BMP180;10528;52.124;5.196;2023-04-24T02:04:45;99788.00;;;17.00
20736;BMP180;10528;52.124;5.196;2023-04-24T02:07:11;99782.00;;;17.00
20736;BMP180;10528;52.124;5.196;2023-04-24T02:09:39;99785.00;;;17.00
20736;BMP180;10528;52.124;5.196;2023-04-24T02:12:06;99788.00;;;17.00
20736;BMP180;10528;52.124;5.196;2023-04-24T02:14:33;99795.00;;;17.10
20736;BMP180;10528;52.124;5.196;2023-04-24T02:17:00;99794.00;;;17.10
20736;BMP180;10528;52.124;5.196;2023-04-24T02:19:28;99782.00;;;17.10
20736;BMP180;10528;52.124;5.196;2023-04-24T02:21:55;99791.00;;;17.10
20736;BMP180;10528;52.124;5.196;2023-04-24T02:24:21;99792.00;;;17.10
20736;BMP180;10528;52.124;5.196;2023-04-24T02:26:48;99796.00;;;17.00
20736;BMP180;10528;52.124;5.196;2023-04-24T02:29:15;99792.00;;;17.00
20736;BMP180;10528;52.124;5.196;2023-04-24T02:31:42;99796.00;;;17.00
20736;BMP180;10528;52.124;5.196;2023-04-24T02:34:09;99804.00;;;17.00
20736;BMP180;10528;52.124;5.196;2023-04-24T02:36:36;99794.00;;;17.00
20736;BMP180;10528;52.124;5.196;2023-04-24T02:39:03;99796.00;;;17.00
20736;BMP180;10528;52.124;5.196;2023-04-24T02:41:31;99795.00;;;17.00
20736;BMP180;10528;52.124;5.196;2023-04-24T02:43:59;99792.00;;;17.00
20736;BMP180;10528;52.124;5.196;2023-04-24T02:46:26;99796.00;;;17.00
20736;BMP180;10528;52.124;5.196;2023-04-24T02:48:53;99788.00;;;17.00
20736;BMP180;10528;52.124;5.196;2023-04-24T02:51:20;99792.00;;;17.00
20736;BMP180;10528;52.124;5.196;2023-04-24T02:53:47;99793.00;;;17.00
20736;BMP180;10528;52.124;5.196;2023-04-24T02:56:14;99801.00;;;17.00
20736;BMP180;10528;52.124;5.196;2023-04-24T02:58:41;99796.00;;;17.00
20736;BMP180;10528;52.124;5.196;2023-04-24T03:01:09;99789.00;;;16.90
20736;BMP180;10528;52.124;5.196;2023-04-24T03:03:38;99794.00;;;16.90
20736;BMP180;10528;52.124;5.196;2023-04-24T03:06:06;99792.00;;;16.90
20736;BMP180;10528;52.124;5.196;2023-04-24T03:08:35;99795.00;;;16.90
20736;BMP180;10528;52.124;5.196;2023-04-24T03:11:02;99794.00;;;16.90
20736;BMP180;10528;52.124;5.196;2023-04-24T03:13:29;99794.00;;;16.90
20736;BMP180;10528;52.124;5.196;2023-04-24T03:15:56;99784.00;;;16.90
20736;BMP180;10528;52.124;5.196;2023-04-24T03:18:23;99788.00;;;16.80
20736;BMP180;10528;52.124;5.196;2023-04-24T03:20:51;99791.00;;;16.80
20736;BMP180;10528;52.124;5.196;2023-04-24T03:23:18;99783.00;;;16.80
20736;BMP180;10528;52.124;5.196;2023-04-24T03:25:45;99788.00;;;16.80
20736;BMP180;10528;52.124;5.196;2023-04-24T03:28:12;99795.00;;;16.80
20736;BMP180;10528;52.124;5.196;2023-04-24T03:30:47;99782.00;;;16.80
20736;BMP180;10528;52.124;5.196;2023-04-24T03:33:15;99788.00;;;16.80
20736;BMP180;10528;52.124;5.196;2023-04-24T03:35:52;99786.00;;;16.80
20736;BMP180;10528;52.124;5.196;2023-04-24T03:38:19;99791.00;;;16.80
20736;BMP180;10528;52.124;5.196;2023-04-24T03:40:52;99787.00;;;16.80
20736;BMP180;10528;52.124;5.196;2023-04-24T03:43:39;99787.00;;;16.80
20736;BMP180;10528;52.124;5.196;2023-04-24T03:46:07;99783.00;;;16.70
20736;BMP180;10528;52.124;5.196;2023-04-24T03:48:39;99789.00;;;16.80
20736;BMP180;10528;52.124;5.196;2023-04-24T03:51:08;99782.00;;;16.70
20736;BMP180;10528;52.124;5.196;2023-04-24T03:53:37;99787.00;;;16.80
20736;BMP180;10528;52.124;5.196;2023-04-24T03:56:04;99792.00;;;16.80
20736;BMP180;10528;52.124;5.196;2023-04-24T03:58:32;99787.00;;;16.80
20736;BMP180;10528;52.124;5.196;2023-04-24T04:00:59;99796.00;;;16.80
20736;BMP180;10528;52.124;5.196;2023-04-24T04:03:49;99791.00;;;16.80
20736;BMP180;10528;52.124;5.196;2023-04-24T04:06:20;99798.00;;;16.80
20736;BMP180;10528;52.124;5.196;2023-04-24T04:08:48;99796.00;;;16.80
20736;BMP180;10528;52.124;5.196;2023-04-24T04:11:15;99805.00;;;16.80
20736;BMP180;10528;52.124;5.196;2023-04-24T04:13:44;99799.00;;;16.80
20736;BMP180;10528;52.124;5.196;2023-04-24T04:16:12;99804.00;;;16.80
20736;BMP180;10528;52.124;5.196;2023-04-24T04:18:39;99795.00;;;16.80
20736;BMP180;10528;52.124;5.196;2023-04-24T04:21:07;99808.00;;;16.80
20736;BMP180;10528;52.124;5.196;2023-04-24T04:23:34;99803.00;;;16.80
20736;BMP180;10528;52.124;5.196;2023-04-24T04:26:11;99817.00;;;16.80
20736;BMP180;10528;52.124;5.196;2023-04-24T04:28:59;99806.00;;;16.80
20736;BMP180;10528;52.124;5.196;2023-04-24T04:31:31;99819.00;;;16.80
20736;BMP180;10528;52.124;5.196;2023-04-24T04:34:01;99826.00;;;16.80
20736;BMP180;10528;52.124;5.196;2023-04-24T04:36:31;99811.00;;;16.80
20736;BMP180;10528;52.124;5.196;2023-04-24T04:39:07;99828.00;;;16.80
20736;BMP180;10528;52.124;5.196;2023-04-24T04:41:46;99833.00;;;16.80
20736;BMP180;10528;52.124;5.196;2023-04-24T04:44:16;99830.00;;;16.80
20736;BMP180;10528;52.124;5.196;2023-04-24T04:46:44;99836.00;;;16.80
20736;BMP180;10528;52.124;5.196;2023-04-24T04:49:35;99840.00;;;16.80
20736;BMP180;10528;52.124;5.196;2023-04-24T04:52:04;99851.00;;;16.80
20736;BMP180;10528;52.124;5.196;2023-04-24T04:54:31;99843.00;;;16.80
20736;BMP180;10528;52.124;5.196;2023-04-24T04:56:58;99854.00;;;16.80
20736;BMP180;10528;52.124;5.196;2023-04-24T04:59:26;99848.00;;;16.80
20736;BMP180;10528;52.124;5.196;2023-04-24T05:01:59;99860.00;;;16.80
20736;BMP180;10528;52.124;5.196;2023-04-24T05:04:26;99862.00;;;16.80
20736;BMP180;10528;52.124;5.196;2023-04-24T05:06:53;99868.00;;;16.80
20736;BMP180;10528;52.124;5.196;2023-04-24T05:09:22;99867.00;;;16.80
20736;BMP180;10528;52.124;5.196;2023-04-24T05:11:53;99879.00;;;16.70
20736;BMP180;10528;52.124;5.196;2023-04-24T05:14:22;99884.00;;;16.70
20736;BMP180;10528;52.124;5.196;2023-04-24T05:16:49;99883.00;;;16.70
20736;BMP180;10528;52.124;5.196;2023-04-24T05:19:19;99895.00;;;16.70
20736;BMP180;10528;52.124;5.196;2023-04-24T05:21:46;99907.00;;;16.70
20736;BMP180;10528;52.124;5.196;2023-04-24T05:24:14;99915.00;;;16.70
20736;BMP180;10528;52.124;5.196;2023-04-24T05:27:13;99916.00;;;16.70
20736;BMP180;10528;52.124;5.196;2023-04-24T05:29:40;99919.00;;;16.60
20736;BMP180;10528;52.124;5.196;2023-04-24T05:32:08;99921.00;;;16.60
20736;BMP180;10528;52.124;5.196;2023-04-24T05:34:35;99934.00;;;16.60
20736;BMP180;10528;52.124;5.196;2023-04-24T05:37:03;99946.00;;;16.60
20736;BMP180;10528;52.124;5.196;2023-04-24T05:39:30;99956.00;;;16.60
20736;BMP180;10528;52.124;5.196;2023-04-24T05:41:58;99946.00;;;16.60
20736;BMP180;10528;52.124;5.196;2023-04-24T05:44:26;99956.00;;;16.60
20736;BMP180;10528;52.124;5.196;2023-04-24T05:46:53;99953.00;;;16.60
20736;BMP180;10528;52.124;5.196;2023-04-24T05:49:20;99950.00;;;16.60
20736;BMP180;10528;52.124;5.196;2023-04-24T05:51:47;99968.00;;;16.60
20736;BMP180;10528;52.124;5.196;2023-04-24T05:54:15;99967.00;;;16.60
20736;BMP180;10528;52.124;5.196;2023-04-24T05:56:43;99963.00;;;16.60
20736;BMP180;10528;52.124;5.196;2023-04-24T05:59:13;99959.00;;;16.60
20736;BMP180;10528;52.124;5.196;2023-04-24T06:01:40;99977.00;;;16.60
20736;BMP180;10528;52.124;5.196;2023-04-24T06:04:13;99976.00;;;16.60
20736;BMP180;10528;52.124;5.196;2023-04-24T06:06:40;99983.00;;;16.50
20736;BMP180;10528;52.124;5.196;2023-04-24T06:09:08;99983.00;;;16.50
20736;BMP180;10528;52.124;5.196;2023-04-24T06:11:35;99994.00;;;16.50
20736;BMP180;10528;52.124;5.196;2023-04-24T06:14:02;99991.00;;;16.50
20736;BMP180;10528;52.124;5.196;2023-04-24T06:16:41;100002.00;;;16.40
20736;BMP180;10528;52.124;5.196;2023-04-24T06:19:21;100012.00;;;16.40
20736;BMP180;10528;52.124;5.196;2023-04-24T06:21:48;100018.00;;;16.40
20736;BMP180;10528;52.124;5.196;2023-04-24T06:24:15;100031.00;;;16.30
20736;BMP180;10528;52.124;5.196;2023-04-24T06:26:43;100032.00;;;16.30
20736;BMP180;10528;52.124;5.196;2023-04-24T06:29:09;100048.00;;;16.30
20736;BMP180;10528;52.124;5.196;2023-04-24T06:31:36;100045.00;;;16.30
20736;BMP180;10528;52.124;5.196;2023-04-24T06:34:04;100067.00;;;16.30
20736;BMP180;10528;52.124;5.196;2023-04-24T06:36:31;100067.00;;;16.30
20736;BMP180;10528;52.124;5.196;2023-04-24T06:38:59;100070.00;;;16.20
20736;BMP180;10528;52.124;5.196;2023-04-24T06:41:25;100074.00;;;16.20
20736;BMP180;10528;52.124;5.196;2023-04-24T06:43:52;100083.00;;;16.20
20736;BMP180;10528;52.124;5.196;2023-04-24T06:46:19;100104.00;;;16.20
20736;BMP180;10528;52.124;5.196;2023-04-24T06:48:49;100102.00;;;16.10
20736;BMP180;10528;52.124;5.196;2023-04-24T06:51:17;100104.00;;;16.10
20736;BMP180;10528;52.124;5.196;2023-04-24T06:53:44;100115.00;;;16.10
20736;BMP180;10528;52.124;5.196;2023-04-24T06:56:13;100122.00;;;16.10
20736;BMP180;10528;52.124;5.196;2023-04-24T06:58:40;100129.00;;;16.10
20736;BMP180;10528;52.124;5.196;2023-04-24T07:01:07;100130.00;;;16.10
20736;BMP180;10528;52.124;5.196;2023-04-24T07:03:34;100139.00;;;16.10
20736;BMP180;10528;52.124;5.196;2023-04-24T07:06:02;100136.00;;;16.10
20736;BMP180;10528;52.124;5.196;2023-04-24T07:08:30;100150.00;;;16.10
20736;BMP180;10528;52.124;5.196;2023-04-24T07:11:00;100162.00;;;16.10
20736;BMP180;10528;52.124;5.196;2023-04-24T07:13:27;100162.00;;;16.00
20736;BMP180;10528;52.124;5.196;2023-04-24T07:15:54;100169.00;;;16.10
20736;BMP180;10528;52.124;5.196;2023-04-24T07:18:22;100169.00;;;16.10
20736;BMP180;10528;52.124;5.196;2023-04-24T07:20:49;100180.00;;;16.10
20736;BMP180;10528;52.124;5.196;2023-04-24T07:23:19;100186.00;;;16.10
20736;BMP180;10528;52.124;5.196;2023-04-24T07:25:46;100189.00;;;16.10
20736;BMP180;10528;52.124;5.196;2023-04-24T07:28:13;100191.00;;;16.10
20736;BMP180;10528;52.124;5.196;2023-04-24T07:30:40;100199.00;;;16.00
20736;BMP180;10528;52.124;5.196;2023-04-24T07:33:07;100199.00;;;16.10
20736;BMP180;10528;52.124;5.196;2023-04-24T07:35:34;100186.00;;;16.10
20736;BMP180;10528;52.124;5.196;2023-04-24T07:38:02;100206.00;;;16.10
20736;BMP180;10528;52.124;5.196;2023-04-24T07:40:28;100205.00;;;16.10
20736;BMP180;10528;52.124;5.196;2023-04-24T07:42:55;100213.00;;;16.10
20736;BMP180;10528;52.124;5.196;2023-04-24T07:45:22;100229.00;;;16.10
20736;BMP180;10528;52.124;5.196;2023-04-24T07:47:50;100230.00;;;16.00
20736;BMP180;10528;52.124;5.196;2023-04-24T07:50:17;100237.00;;;16.00
20736;BMP180;10528;52.124;5.196;2023-04-24T07:52:44;100231.00;;;16.00
20736;BMP180;10528;52.124;5.196;2023-04-24T07:55:11;100247.00;;;16.00
20736;BMP180;10528;52.124;5.196;2023-04-24T07:57:38;100250.00;;;16.00
20736;BMP180;10528;52.124;5.196;2023-04-24T08:00:06;100241.00;;;16.00
20736;BMP180;10528;52.124;5.196;2023-04-24T08:02:39;100258.00;;;16.00
20736;BMP180;10528;52.124;5.196;2023-04-24T08:05:06;100265.00;;;16.00
20736;BMP180;10528;52.124;5.196;2023-04-24T08:07:33;100265.00;;;15.90
20736;BMP180;10528;52.124;5.196;2023-04-24T08:10:02;100282.00;;;15.90
20736;BMP180;10528;52.124;5.196;2023-04-24T08:12:29;100275.00;;;15.90
20736;BMP180;10528;52.124;5.196;2023-04-24T08:14:56;100290.00;;;15.90
20736;BMP180;10528;52.124;5.196;2023-04-24T08:17:24;100294.00;;;15.90
20736;BMP180;10528;52.124;5.196;2023-04-24T08:19:51;100296.00;;;15.90
20736;BMP180;10528;52.124;5.196;2023-04-24T08:22:19;100305.00;;;15.90
20736;BMP180;10528;52.124;5.196;2023-04-24T08:24:46;100317.00;;;15.90
20736;BMP180;10528;52.124;5.196;2023-04-24T08:27:13;100323.00;;;15.90
20736;BMP180;10528;52.124;5.196;2023-04-24T08:29:40;100342.00;;;15.90
20736;BMP180;10528;52.124;5.196;2023-04-24T08:32:07;100341.00;;;16.00
20736;BMP180;10528;52.124;5.196;2023-04-24T08:34:34;100347.00;;;16.00
20736;BMP180;10528;52.124;5.196;2023-04-24T08:37:01;100357.00;;;16.00
20736;BMP180;10528;52.124;5.196;2023-04-24T08:39:28;100357.00;;;16.00
20736;BMP180;10528;52.124;5.196;2023-04-24T08:41:56;100352.00;;;16.00
20736;BMP180;10528;52.124;5.196;2023-04-24T08:44:23;100364.00;;;16.00
20736;BMP180;10528;52.124;5.196;2023-04-24T08:46:50;100353.00;;;16.00
20736;BMP180;10528;52.124;5.196;2023-04-24T08:49:19;100364.00;;;16.00
20736;BMP180;10528;52.124;5.196;2023-04-24T08:51:46;100369.00;;;16.00
20736;BMP180;10528;52.124;5.196;2023-04-24T08:54:14;100376.00;;;16.00
20736;BMP180;10528;52.124;5.196;2023-04-24T08:56:44;100384.00;;;16.10
20736;BMP180;10528;52.124;5.196;2023-04-24T08:59:12;100393.00;;;16.00
20736;BMP180;10528;52.124;5.196;2023-04-24T09:01:40;100386.00;;;16.10
20736;BMP180;10528;52.124;5.196;2023-04-24T09:04:09;100395.00;;;16.10
20736;BMP180;10528;52.124;5.196;2023-04-24T09:06:39;100396.00;;;16.20
20736;BMP180;10528;52.124;5.196;2023-04-24T09:09:06;100400.00;;;16.20
20736;BMP180;10528;52.124;5.196;2023-04-24T09:11:34;100397.00;;;16.20
20736;BMP180;10528;52.124;5.196;2023-04-24T09:14:02;100406.00;;;16.10
20736;BMP180;10528;52.124;5.196;2023-04-24T09:16:30;100403.00;;;16.10
20736;BMP180;10528;52.124;5.196;2023-04-24T09:19:02;100410.00;;;16.20
20736;BMP180;10528;52.124;5.196;2023-04-24T09:21:34;100401.00;;;16.30
20736;BMP180;10528;52.124;5.196;2023-04-24T09:24:08;100409.00;;;16.30
20736;BMP180;10528;52.124;5.196;2023-04-24T09:26:41;100418.00;;;16.30
20736;BMP180;10528;52.124;5.196;2023-04-24T09:29:18;100420.00;;;16.40
20736;BMP180;10528;52.124;5.196;2023-04-24T09:31:46;100417.00;;;16.30
20736;BMP180;10528;52.124;5.196;2023-04-24T09:34:13;100424.00;;;16.40
20736;BMP180;10528;52.124;5.196;2023-04-24T09:36:42;100419.00;;;16.40
20736;BMP180;10528;52.124;5.196;2023-04-24T09:39:13;100433.00;;;16.40
20736;BMP180;10528;52.124;5.196;2023-04-24T09:41:52;100444.00;;;16.40
20736;BMP180;10528;52.124;5.196;2023-04-24T09:44:21;100445.00;;;16.30
20736;BMP180;10528;52.124;5.196;2023-04-24T09:46:57;100440.00;;;16.30
20736;BMP180;10528;52.124;5.196;2023-04-24T09:49:31;100442.00;;;16.40
20736;BMP180;10528;52.124;5.196;2023-04-24T09:52:10;100462.00;;;16.40
20736;BMP180;10528;52.124;5.196;2023-04-24T09:54:40;100458.00;;;16.30
20736;BMP180;10528;52.124;5.196;2023-04-24T09:57:10;100457.00;;;16.40
20736;BMP180;10528;52.124;5.196;2023-04-24T09:59:42;100453.00;;;16.50
20736;BMP180;10528;52.124;5.196;2023-04-24T10:02:19;100474.00;;;16.60
20736;BMP180;10528;52.124;5.196;2023-04-24T10:04:57;100474.00;;;16.60
20736;BMP180;10528;52.124;5.196;2023-04-24T10:07:26;100487.00;;;16.60
20736;BMP180;10528;52.124;5.196;2023-04-24T10:09:54;100489.00;;;16.40
20736;BMP180;10528;52.124;5.196;2023-04-24T10:12:22;100498.00;;;16.30
20736;BMP180;10528;52.124;5.196;2023-04-24T10:14:50;100496.00;;;16.30
20736;BMP180;10528;52.124;5.196;2023-04-24T10:17:17;100493.00;;;16.40
20736;BMP180;10528;52.124;5.196;2023-04-24T10:19:47;100489.00;;;16.50
20736;BMP180;10528;52.124;5.196;2023-04-24T10:22:17;100496.00;;;16.60
20736;BMP180;10528;52.124;5.196;2023-04-24T10:24:47;100486.00;;;16.50
20736;BMP180;10528;52.124;5.196;2023-04-24T10:27:14;100496.00;;;16.70
20736;BMP180;10528;52.124;5.196;2023-04-24T10:29:43;100496.00;;;16.70
20736;BMP180;10528;52.124;5.196;2023-04-24T10:32:12;100492.00;;;16.80
20736;BMP180;10528;52.124;5.196;2023-04-24T10:34:39;100498.00;;;16.90
20736;BMP180;10528;52.124;5.196;2023-04-24T10:37:06;100501.00;;;17.00
20736;BMP180;10528;52.124;5.196;2023-04-24T10:39:33;100508.00;;;17.10
20736;BMP180;10528;52.124;5.196;2023-04-24T10:42:00;100508.00;;;17.00
20736;BMP180;10528;52.124;5.196;2023-04-24T10:44:36;100501.00;;;17.10
20736;BMP180;10528;52.124;5.196;2023-04-24T10:47:03;100512.00;;;17.20
20736;BMP180;10528;52.124;5.196;2023-04-24T10:49:32;100515.00;;;17.20
20736;BMP180;10528;52.124;5.196;2023-04-24T10:52:04;100516.00;;;17.20
20736;BMP180;10528;52.124;5.196;2023-04-24T11:00:24;100520.00;;;17.40
20736;BMP180;10528;52.124;5.196;2023-04-24T11:02:53;100521.00;;;17.30
20736;BMP180;10528;52.124;5.196;2023-04-24T11:05:21;100544.00;;;17.00
20736;BMP180;10528;52.124;5.196;2023-04-24T11:08:12;100557.00;;;17.10
20736;BMP180;10528;52.124;5.196;2023-04-24T11:10:59;100561.00;;;17.00
20736;BMP180;10528;52.124;5.196;2023-04-24T11:16:51;100556.00;;;16.90
20736;BMP180;10528;52.124;5.196;2023-04-24T11:19:22;100556.00;;;17.00
20736;BMP180;10528;52.124;5.196;2023-04-24T11:22:03;100560.00;;;17.00
20736;BMP180;10528;52.124;5.196;2023-04-24T11:24:40;100552.00;;;17.10
20736;BMP180;10528;52.124;5.196;2023-04-24T11:27:21;100563.00;;;17.10
20736;BMP180;10528;52.124;5.196;2023-04-24T11:32:33;100576.00;;;17.10
20736;BMP180;10528;52.124;5.196;2023-04-24T11:37:36;100572.00;;;17.20
20736;BMP180;10528;52.124;5.196;2023-04-24T11:40:06;100581.00;;;17.40
20736;BMP180;10528;52.124;5.196;2023-04-24T11:42:42;100589.00;;;17.50
20736;BMP180;10528;52.124;5.196;2023-04-24T11:45:15;100587.00;;;17.60
20736;BMP180;10528;52.124;5.196;2023-04-24T11:47:43;100573.00;;;17.70
20736;BMP180;10528;52.124;5.196;2023-04-24T11:50:16;100581.00;;;17.70
20736;BMP180;10528;52.124;5.196;2023-04-24T11:52:46;100592.00;;;17.90
20736;BMP180;10528;52.124;5.196;2023-04-24T11:57:49;100609.00;;;17.80
20736;BMP180;10528;52.124;5.196;2023-04-24T12:00:19;100608.00;;;17.90
20736;BMP180;10528;52.124;5.196;2023-04-24T12:02:48;100595.00;;;17.90
20736;BMP180;10528;52.124;5.196;2023-04-24T12:05:27;100610.00;;;17.90
20736;BMP180;10528;52.124;5.196;2023-04-24T12:07:54;100609.00;;;17.90
20736;BMP180;10528;52.124;5.196;2023-04-24T12:10:28;100624.00;;;17.90
20736;BMP180;10528;52.124;5.196;2023-04-24T12:12:57;100613.00;;;17.70
20736;BMP180;10528;52.124;5.196;2023-04-24T12:15:26;100624.00;;;17.90
20736;BMP180;10528;52.124;5.196;2023-04-24T12:17:54;100630.00;;;17.90
20736;BMP180;10528;52.124;5.196;2023-04-24T12:20:28;100630.00;;;17.80
20736;BMP180;10528;52.124;5.196;2023-04-24T12:22:57;100633.00;;;17.90
20736;BMP180;10528;52.124;5.196;2023-04-24T12:25:28;100640.00;;;18.00
20736;BMP180;10528;52.124;5.196;2023-04-24T12:30:35;100637.00;;;18.10
20736;BMP180;10528;52.124;5.196;2023-04-24T12:33:03;100650.00;;;18.10
20736;BMP180;10528;52.124;5.196;2023-04-24T12:35:32;100656.00;;;17.80
20736;BMP180;10528;52.124;5.196;2023-04-24T12:38:12;100660.00;;;17.90
20736;BMP180;10528;52.124;5.196;2023-04-24T12:40:41;100661.00;;;17.90
20736;BMP180;10528;52.124;5.196;2023-04-24T12:43:17;100663.00;;;17.70
20736;BMP180;10528;52.124;5.196;2023-04-24T12:45:45;100667.00;;;17.60
20736;BMP180;10528;52.124;5.196;2023-04-24T12:48:12;100683.00;;;17.40
20736;BMP180;10528;52.124;5.196;2023-04-24T12:50:42;100674.00;;;17.30
20736;BMP180;10528;52.124;5.196;2023-04-24T12:53:13;100664.00;;;17.10
20736;BMP180;10528;52.124;5.196;2023-04-24T12:55:39;100681.00;;;17.30
20736;BMP180;10528;52.124;5.196;2023-04-24T12:58:07;100688.00;;;17.30
20736;BMP180;10528;52.124;5.196;2023-04-24T13:00:34;100690.00;;;17.20
20736;BMP180;10528;52.124;5.196;2023-04-24T13:03:01;100679.00;;;17.20
20736;BMP180;10528;52.124;5.196;2023-04-24T13:05:29;100685.00;;;16.90
20736;BMP180;10528;52.124;5.196;2023-04-24T13:07:57;100696.00;;;16.90
20736;BMP180;10528;52.124;5.196;2023-04-24T13:10:24;100691.00;;;17.00
20736;BMP180;10528;52.124;5.196;2023-04-24T13:12:51;100684.00;;;17.10
20736;BMP180;10528;52.124;5.196;2023-04-24T13:15:18;100683.00;;;17.20
20736;BMP180;10528;52.124;5.196;2023-04-24T13:17:45;100677.00;;;17.30
20736;BMP180;10528;52.124;5.196;2023-04-24T13:20:12;100691.00;;;17.30
20736;BMP180;10528;52.124;5.196;2023-04-24T13:22:39;100693.00;;;17.30
20736;BMP180;10528;52.124;5.196;2023-04-24T13:25:06;100697.00;;;17.30
20736;BMP180;10528;52.124;5.196;2023-04-24T13:27:33;100702.00;;;17.30
20736;BMP180;10528;52.124;5.196;2023-04-24T13:30:00;100700.00;;;17.40
20736;BMP180;10528;52.124;5.196;2023-04-24T13:32:27;100695.00;;;17.30
20736;BMP180;10528;52.124;5.196;2023-04-24T13:34:56;100704.00;;;17.40
20736;BMP180;10528;52.124;5.196;2023-04-24T13:37:23;100708.00;;;17.40
20736;BMP180;10528;52.124;5.196;2023-04-24T13:39:50;100707.00;;;17.50
20736;BMP180;10528;52.124;5.196;2023-04-24T13:42:18;100714.00;;;17.30
20736;BMP180;10528;52.124;5.196;2023-04-24T13:44:45;100704.00;;;17.50
20736;BMP180;10528;52.124;5.196;2023-04-24T13:47:12;100707.00;;;17.50
20736;BMP180;10528;52.124;5.196;2023-04-24T13:49:39;100709.00;;;17.40
20736;BMP180;10528;52.124;5.196;2023-04-24T13:52:06;100708.00;;;17.50
20736;BMP180;10528;52.124;5.196;2023-04-24T13:54:33;100708.00;;;17.50
20736;BMP180;10528;52.124;5.196;2023-04-24T13:57:01;100706.00;;;17.70
20736;BMP180;10528;52.124;5.196;2023-04-24T13:59:29;100713.00;;;17.80
20736;BMP180;10528;52.124;5.196;2023-04-24T14:01:56;100704.00;;;17.90
20736;BMP180;10528;52.124;5.196;2023-04-24T14:04:23;100720.00;;;17.90
20736;BMP180;10528;52.124;5.196;2023-04-24T14:06:50;100723.00;;;17.90
20736;BMP180;10528;52.124;5.196;2023-04-24T14:09:17;100713.00;;;17.80
20736;BMP180;10528;52.124;5.196;2023-04-24T14:11:44;100718.00;;;17.90
20736;BMP180;10528;52.124;5.196;2023-04-24T14:14:11;100706.00;;;17.80
20736;BMP180;10528;52.124;5.196;2023-04-24T14:16:38;100710.00;;;17.90
20736;BMP180;10528;52.124;5.196;2023-04-24T14:19:05;100717.00;;;17.90
20736;BMP180;10528;52.124;5.196;2023-04-24T14:21:33;100724.00;;;17.80
20736;BMP180;10528;52.124;5.196;2023-04-24T14:24:00;100714.00;;;17.80
20736;BMP180;10528;52.124;5.196;2023-04-24T14:26:27;100709.00;;;17.70
20736;BMP180;10528;52.124;5.196;2023-04-24T14:28:54;100700.00;;;17.80
20736;BMP180;10528;52.124;5.196;2023-04-24T14:31:39;100713.00;;;17.80